Lorton Lick, West Virginia
Current Conditions -  °F | °C
As of 8:52 AM on Monday 20 Oct 2014 (Local Time) from KBLF Reporting Station
Clear Clear  
Wind Chill:   Ceiling: Unl
Heat Index:   Visibility: 10mi
Dew Point:   Wind: 3mph
Humidity: 61%   Direction: 220°SW
Pressure: 30.1"   Gusts: NA
Location:  37.2994°N, 81.226°W
Report Text: KBLF 201252Z AUTO 22003KT 10SM CLR 09/02 A3010 RMK AO2 SLP191 T00890017
Loading
Personal Weather Stations






























Interactive Weather Map
Tropical Storm Tracking
New forecast layout! Learn more

10-Day Weather Forecast

Advertisements
Track Severe Weather on mobile